Time;durP1;ratioP1;P1;durP2;ratioP2;P2;SDS_P1;SDS_P2;PMS_P1;PMS_P2;Temp;Humidity;BMP_temperature;BMP_pressure;BME280_temperature;BME280_humidity;BME280_pressure;Samples;Min_cycle;Max_cycle;Signal;HPM_P1;HPM_P2
2023/08/13 00:05:18;;;;;;;3.78;3.30;;;;;;;21.14;74.28;101229.06;15718806;28;20105;-55
2023/08/13 00:12:52;;;;;;;7.40;3.72;;;;;;;21.22;73.50;101219.53;15699036;28;20063;-57
2023/08/13 00:20:25;;;;;;;5.57;3.60;;;;;;;20.74;75.94;101233.25;15673284;28;20048;-57
2023/08/13 00:28:00;;;;;;;6.57;3.70;;;;;;;20.90;74.66;101236.91;15655256;28;20037;-55
2023/08/13 00:35:33;;;;;;;6.45;4.60;;;;;;;20.95;73.85;101233.38;15658478;28;20531;-55
2023/08/13 00:43:07;;;;;;;5.90;4.03;;;;;;;20.33;77.33;101240.38;15680388;28;20040;-52
2023/08/13 00:50:41;;;;;;;8.30;3.80;;;;;;;20.29;76.83;101263.81;15699874;28;20102;-52
2023/08/13 00:58:16;;;;;;;4.80;4.07;;;;;;;20.77;74.89;101272.84;15716043;28;20051;-57
2023/08/13 01:05:54;;;;;;;4.43;3.88;;;;;;;20.37;76.05;101274.19;15734178;28;20084;-52
2023/08/13 01:13:34;;;;;;;5.28;4.00;;;;;;;20.07;77.04;101291.16;15710630;28;20047;-57
2023/08/13 01:21:07;;;;;;;6.97;4.30;;;;;;;19.83;78.20;101293.41;15716166;28;20063;-52
2023/08/13 01:28:47;;;;;;;8.48;4.10;;;;;;;20.32;76.33;101285.91;15716048;28;20067;-55
2023/08/13 01:36:21;;;;;;;5.30;4.28;;;;;;;20.03;77.24;101298.22;15725532;28;20044;-56
2023/08/13 01:43:55;;;;;;;5.95;4.00;;;;;;;20.17;78.09;101302.16;15710648;28;20044;-54
2023/08/13 01:51:31;;;;;;;4.07;3.50;;;;;;;20.31;77.27;101300.63;15665229;28;20144;-53
2023/08/13 01:59:05;;;;;;;5.63;3.70;;;;;;;20.04;78.00;101310.75;15664567;28;20040;-54
2023/08/13 02:06:38;;;;;;;6.35;4.13;;;;;;;20.50;75.72;101316.59;15663599;28;20041;-52
2023/08/13 02:14:13;;;;;;;6.38;3.67;;;;;;;20.22;76.58;101320.44;15693366;28;20036;-56
2023/08/13 02:21:46;;;;;;;4.07;3.67;;;;;;;20.11;76.21;101314.91;15725385;28;20052;-56
2023/08/13 02:29:21;;;;;;;4.45;3.67;;;;;;;20.21;75.71;101318.81;15724641;28;20041;-55
2023/08/13 02:36:54;;;;;;;4.72;3.83;;;;;;;20.56;74.32;101329.19;15707041;28;20076;-51
2023/08/13 02:44:30;;;;;;;4.90;4.05;;;;;;;20.53;73.64;101335.19;15718599;28;20740;-56
2023/08/13 02:52:04;;;;;;;6.15;3.85;;;;;;;20.42;73.23;101336.13;15679248;28;20048;-55
2023/08/13 02:59:39;;;;;;;6.65;3.80;;;;;;;20.28;73.18;101342.03;15678788;28;20156;-53
2023/08/13 03:07:14;;;;;;;4.90;4.38;;;;;;;20.06;73.71;101344.84;15686650;22;20049;-51
2023/08/13 03:14:48;;;;;;;6.43;4.68;;;;;;;20.09;73.66;101344.31;15682115;28;20448;-53
2023/08/13 03:22:24;;;;;;;5.03;4.53;;;;;;;20.03;73.60;101350.81;15665053;28;20049;-53
2023/08/13 03:29:59;;;;;;;7.35;4.50;;;;;;;19.95;74.07;101353.19;15681649;28;20564;-51
2023/08/13 03:37:37;;;;;;;6.85;4.50;;;;;;;19.96;73.80;101355.66;15647427;28;20493;-54
2023/08/13 03:45:12;;;;;;;7.78;4.90;;;;;;;19.62;75.18;101371.34;15663078;28;20049;-51
2023/08/13 03:52:45;;;;;;;5.22;4.55;;;;;;;19.24;76.80;101383.13;15662518;28;20049;-54
2023/08/13 04:00:20;;;;;;;10.52;5.15;;;;;;;19.37;76.32;101386.28;15662137;28;20450;-53
2023/08/13 04:07:53;;;;;;;10.00;5.15;;;;;;;19.22;77.20;101382.56;15662615;28;20041;-53
2023/08/13 04:15:28;;;;;;;7.60;5.15;;;;;;;18.90;78.00;101387.81;15621243;28;20065;-51
2023/08/13 04:23:01;;;;;;;10.43;5.10;;;;;;;19.02;77.71;101381.19;15599167;28;20054;-52
2023/08/13 04:30:36;;;;;;;7.10;5.32;;;;;;;19.74;74.81;101374.78;15615011;28;20103;-51
2023/08/13 04:38:12;;;;;;;7.53;5.10;;;;;;;20.01;74.05;101385.69;15615233;28;20395;-54
2023/08/13 04:45:53;;;;;;;8.10;5.43;;;;;;;19.81;75.03;101383.56;15615325;28;20037;-55
2023/08/13 04:53:27;;;;;;;8.38;5.05;;;;;;;20.21;74.06;101403.31;15614713;28;20502;-52
2023/08/13 05:01:02;;;;;;;9.80;5.10;;;;;;;19.98;74.40;101396.28;15615107;28;20033;-52
2023/08/13 05:08:37;;;;;;;5.97;4.20;;;;;;;20.01;74.87;101395.78;15619652;28;20095;-52
2023/08/13 05:16:14;;;;;;;4.88;3.47;;;;;;;20.06;73.50;101404.00;15672312;28;20025;-52
2023/08/13 05:23:50;;;;;;;6.32;3.55;;;;;;;20.52;72.26;101415.34;15671556;28;20449;-52
2023/08/13 05:31:24;;;;;;;8.52;3.10;;;;;;;20.08;72.93;101416.28;15670633;28;20114;-54
2023/08/13 05:38:57;;;;;;;4.93;2.53;;;;;;;20.23;71.29;101423.75;15670836;28;20513;-53
2023/08/13 05:46:32;;;;;;;5.60;2.70;;;;;;;20.00;71.84;101418.63;15654414;28;20587;-54
2023/08/13 05:54:08;;;;;;;6.85;3.10;;;;;;;20.94;68.60;101417.28;15670981;28;20049;-53
2023/08/13 06:01:42;;;;;;;6.72;3.10;;;;;;;20.86;69.51;101419.44;15687696;28;20049;-53
2023/08/13 06:09:15;;;;;;;7.40;3.35;;;;;;;21.11;67.91;101426.13;15686825;28;20095;-52
2023/08/13 06:16:50;;;;;;;5.53;3.00;;;;;;;20.73;67.89;101429.97;15634493;28;20518;-55
2023/08/13 06:24:23;;;;;;;4.97;3.30;;;;;;;20.88;69.23;101428.16;15624183;28;20060;-55
2023/08/13 06:31:57;;;;;;;6.38;3.50;;;;;;;21.30;68.70;101431.97;15623188;28;20052;-56
2023/08/13 06:39:30;;;;;;;6.03;3.30;;;;;;;21.94;66.95;101439.91;15623665;28;20129;-54
2023/08/13 06:47:05;;;;;;;7.72;2.80;;;;;;;21.98;65.30;101419.16;15622475;28;20034;-54
2023/08/13 06:54:38;;;;;;;6.95;2.40;;;;;;;21.70;62.72;101439.56;15621256;28;20137;-55
2023/08/13 07:02:12;;;;;;;6.40;2.45;;;;;;;22.05;61.35;101430.63;15621469;28;20072;-53
2023/08/13 07:09:45;;;;;;;4.57;2.25;;;;;;;22.44;58.42;101418.44;15618389;28;20383;-55
2023/08/13 07:17:21;;;;;;;7.47;2.05;;;;;;;23.14;56.14;101427.69;15674014;28;20124;-53
2023/08/13 07:24:54;;;;;;;4.93;1.73;;;;;;;22.87;51.94;101431.53;15661714;28;20037;-55
2023/08/13 07:32:29;;;;;;;6.60;2.00;;;;;;;23.68;52.39;101429.72;15660631;28;20041;-55
2023/08/13 07:40:02;;;;;;;7.22;1.90;;;;;;;24.45;50.03;101432.03;15644948;28;20473;-55
2023/08/13 07:47:37;;;;;;;6.65;2.00;;;;;;;24.76;49.97;101430.66;15644485;28;20197;-56
2023/08/13 07:55:11;;;;;;;5.78;2.05;;;;;;;24.96;47.47;101426.06;15678025;28;20513;-55
2023/08/13 08:02:45;;;;;;;9.93;1.90;;;;;;;24.59;48.19;101433.00;15639628;28;1094486;-54
2023/08/13 08:10:19;;;;;;;7.60;2.00;;;;;;;23.72;49.14;101432.72;15662152;28;20056;-55
2023/08/13 08:17:53;;;;;;;4.20;1.55;;;;;;;24.02;47.75;101426.25;15619544;28;20041;-55
2023/08/13 08:25:26;;;;;;;6.10;1.88;;;;;;;24.48;47.72;101431.44;15617693;28;20407;-55
2023/08/13 08:33:00;;;;;;;5.35;1.98;;;;;;;25.41;43.29;101431.09;15617501;28;20041;-55
2023/08/13 08:40:33;;;;;;;5.03;1.83;;;;;;;25.55;43.46;101422.94;15616640;28;20045;-56
2023/08/13 08:48:08;;;;;;;7.22;2.00;;;;;;;25.49;45.39;101431.53;15614950;28;20051;-56
2023/08/13 08:55:42;;;;;;;7.72;1.95;;;;;;;25.03;45.60;101421.84;15664937;28;20065;-53
2023/08/13 09:03:17;;;;;;;7.32;2.10;;;;;;;26.11;44.16;101413.13;15685031;22;20049;-71
2023/08/13 09:10:50;;;;;;;4.82;2.17;;;;;;;25.36;41.55;101409.16;15676630;28;20103;-71
2023/08/13 09:18:25;;;;;;;7.15;1.60;;;;;;;25.97;40.96;101414.97;15656594;28;20095;-71
2023/08/13 09:25:58;;;;;;;4.45;1.92;;;;;;;26.62;39.90;101402.13;15674906;28;20118;-70
2023/08/13 09:33:33;;;;;;;5.63;2.17;;;;;;;26.63;40.02;101376.22;15677303;28;20045;-71
2023/08/13 09:41:08;;;;;;;4.38;2.08;;;;;;;27.85;38.90;101383.19;15675654;28;20045;-70
2023/08/13 09:48:43;;;;;;;5.82;2.08;;;;;;;27.06;40.41;101398.00;15657890;28;20040;-69
2023/08/13 09:56:20;;;;;;;5.65;1.70;;;;;;;28.01;36.60;101392.72;15683436;28;20047;-70
2023/08/13 10:03:55;;;;;;;6.55;2.17;;;;;;;27.77;37.39;101387.47;15687599;28;20471;-71
2023/08/13 10:11:29;;;;;;;7.72;2.15;;;;;;;27.58;39.15;101406.09;15678127;28;20049;-72
2023/08/13 10:19:07;;;;;;;7.78;1.88;;;;;;;27.60;37.01;101381.75;15624124;28;20049;-70
2023/08/13 10:26:42;;;;;;;5.38;2.13;;;;;;;27.69;35.46;101397.28;15622382;28;20053;-69
2023/08/13 10:34:18;;;;;;;4.03;1.77;;;;;;;26.94;36.54;101400.44;15590630;28;20059;-71
2023/08/13 10:41:51;;;;;;;4.47;2.13;;;;;;;27.21;37.12;101399.69;15625548;28;20041;-71
2023/08/13 10:49:26;;;;;;;5.95;1.40;;;;;;;27.59;37.85;101393.94;15626293;28;20045;-71
2023/08/13 10:57:03;;;;;;;7.10;1.73;;;;;;;28.32;35.72;101406.63;15624499;28;20052;-71
2023/08/13 11:04:41;;;;;;;6.07;1.85;;;;;;;27.82;36.04;101381.03;15622795;28;20128;-70
2023/08/13 11:12:14;;;;;;;3.63;1.55;;;;;;;27.62;35.16;101394.13;15634681;28;20499;-72
2023/08/13 11:19:48;;;;;;;6.07;2.20;;;;;;;26.29;37.79;101397.69;15684572;28;20045;-72
2023/08/13 11:27:27;;;;;;;4.88;1.83;;;;;;;28.35;34.63;101383.09;15683851;28;20075;-71
2023/08/13 11:35:05;;;;;;;4.13;1.42;;;;;;;28.83;35.56;101372.16;15699249;28;20474;-71
2023/08/13 11:42:50;;;;;;;5.50;1.58;;;;;;;29.19;34.03;101357.34;15683437;28;20127;-71
2023/08/13 11:50:24;;;;;;;6.70;1.90;;;;;;;28.33;35.37;101358.53;15681125;28;20049;-70
2023/08/13 11:57:59;;;;;;;5.70;1.90;;;;;;;28.72;35.91;101354.22;15679202;28;20044;-70
2023/08/13 12:05:35;;;;;;;7.65;1.55;;;;;;;29.69;35.99;101345.91;15680226;28;20517;-70
2023/08/13 12:13:08;;;;;;;6.50;1.85;;;;;;;30.18;33.41;101352.94;15653673;28;20127;-70
2023/08/13 12:20:43;;;;;;;6.28;1.70;;;;;;;28.00;34.72;101340.59;15616260;28;20060;-70
2023/08/13 12:28:16;;;;;;;5.40;1.80;;;;;;;30.02;33.05;101329.63;15615938;28;20099;-68
2023/08/13 12:35:50;;;;;;;5.68;1.98;;;;;;;29.68;34.47;101330.47;15616054;28;20049;-71
2023/08/13 12:43:23;;;;;;;4.95;1.70;;;;;;;30.13;31.11;101319.03;15617130;28;20069;-70
2023/08/13 12:50:57;;;;;;;2.85;1.73;;;;;;;29.80;31.34;101316.81;15615305;28;20044;-70
2023/08/13 12:58:31;;;;;;;6.15;2.00;;;;;;;29.94;30.43;101311.91;15614994;28;20050;-70
2023/08/13 13:06:06;;;;;;;5.90;1.85;;;;;;;30.09;31.92;101307.81;15615105;28;20042;-67
2023/08/13 13:13:39;;;;;;;5.45;1.67;;;;;;;31.70;29.75;101290.22;15636062;28;20044;-71
2023/08/13 13:21:13;;;;;;;5.65;1.60;;;;;;;30.33;31.04;101296.22;15674958;28;20053;-70
2023/08/13 13:28:46;;;;;;;3.67;1.60;;;;;;;29.54;35.57;101302.13;15678522;28;20049;-70
2023/08/13 13:36:20;;;;;;;7.30;1.90;;;;;;;28.53;37.94;101292.88;15689412;28;20044;-69
2023/08/13 13:43:53;;;;;;;3.05;1.67;;;;;;;28.53;36.46;101298.41;15688412;28;20111;-68
2023/08/13 13:51:27;;;;;;;6.45;1.80;;;;;;;27.61;37.54;101293.22;15687425;28;20045;-71
2023/08/13 13:59:00;;;;;;;4.50;1.70;;;;;;;28.62;35.65;101288.22;15687442;28;20045;-70
2023/08/13 14:06:34;;;;;;;6.07;1.88;;;;;;;28.35;34.25;101279.00;15687458;28;20131;-70
2023/08/13 14:14:07;;;;;;;4.68;2.00;;;;;;;28.73;33.17;101275.75;15637689;28;20103;-70
2023/08/13 14:21:42;;;;;;;6.25;2.03;;;;;;;28.52;35.01;101264.44;15625337;28;20041;-71
2023/08/13 14:29:15;;;;;;;4.28;1.83;;;;;;;28.16;38.44;101262.59;15623171;28;20053;-69
2023/08/13 14:36:49;;;;;;;2.83;1.73;;;;;;;28.15;36.33;101244.44;15624194;28;20140;-70
2023/08/13 14:44:22;;;;;;;5.57;1.63;;;;;;;28.51;36.90;101243.50;15622657;28;20111;-69
2023/08/13 14:51:57;;;;;;;4.90;1.60;;;;;;;28.45;34.41;101234.53;15645173;22;20104;-51
2023/08/13 14:59:30;;;;;;;3.40;1.70;;;;;;;28.14;36.18;101245.56;15623109;28;20044;-54
2023/08/13 15:07:05;;;;;;;4.68;1.55;;;;;;;28.37;34.36;101232.56;15655898;22;20081;-71
2023/08/13 15:14:39;;;;;;;7.85;1.77;;;;;;;27.55;41.10;101232.97;15677108;28;20045;-71
2023/08/13 15:22:15;;;;;;;5.15;1.85;;;;;;;28.07;37.67;101225.06;15679968;28;20511;-72
2023/08/13 15:29:49;;;;;;;4.45;1.40;;;;;;;27.57;36.21;101225.22;15679084;28;20048;-70
2023/08/13 15:37:23;;;;;;;3.83;1.60;;;;;;;27.94;37.66;101227.59;15679269;28;20040;-71
2023/08/13 15:44:57;;;;;;;9.95;1.73;;;;;;;27.51;37.53;101218.16;15678018;28;20041;-71
2023/08/13 15:52:33;;;;;;;4.57;1.90;;;;;;;27.61;37.94;101218.75;15677419;28;20053;-72
2023/08/13 16:00:07;;;;;;;10.02;5.95;;;;;;;27.49;38.59;101214.91;15659314;28;20041;-71
2023/08/13 16:07:47;;;;;;;18.48;11.95;;;;;;;27.98;39.42;101216.75;15676941;28;20068;-69
2023/08/13 16:15:21;;;;;;;4.30;2.05;;;;;;;27.55;38.52;101197.91;15675444;28;20139;-72
2023/08/13 16:22:55;;;;;;;8.80;4.60;;;;;;;27.29;39.64;101189.47;15676961;28;20037;-72
2023/08/13 16:30:28;;;;;;;6.40;2.40;;;;;;;27.03;39.93;101182.88;15675047;28;20037;-71
2023/08/13 16:38:03;;;;;;;5.35;1.90;;;;;;;26.95;40.67;101185.25;15691829;28;20572;-70
2023/08/13 16:45:36;;;;;;;5.00;1.90;;;;;;;26.86;41.29;101181.59;15675108;28;20041;-70
2023/08/13 16:53:10;;;;;;;5.70;1.90;;;;;;;26.60;41.41;101180.50;15657172;28;20414;-69
2023/08/13 17:00:44;;;;;;;5.45;2.03;;;;;;;26.41;41.86;101178.66;15672377;28;20045;-70
2023/08/13 17:08:19;;;;;;;9.52;2.20;;;;;;;27.07;46.69;101179.19;15672831;28;20049;-70
2023/08/13 17:15:53;;;;;;;5.82;2.22;;;;;;;26.98;47.02;101171.97;15629298;28;20049;-71
2023/08/13 17:23:28;;;;;;;7.22;3.53;;;;;;;26.58;45.51;101172.56;15611528;28;20516;-70
2023/08/13 17:31:04;;;;;;;10.80;4.72;;;;;;;26.60;47.45;101159.31;15611546;28;20053;-70
2023/08/13 17:38:39;;;;;;;10.65;2.90;;;;;;;26.30;49.28;101176.41;15611486;28;20054;-68
2023/08/13 17:46:12;;;;;;;6.75;2.80;;;;;;;26.24;50.67;101186.69;15613521;28;20041;-70
2023/08/13 17:53:47;;;;;;;6.82;2.70;;;;;;;25.73;47.84;101175.78;15611691;28;20053;-70
2023/08/13 18:01:20;;;;;;;4.43;2.10;;;;;;;25.40;47.85;101179.34;15611367;28;20111;-69
2023/08/13 18:08:54;;;;;;;5.70;2.58;;;;;;;24.93;47.31;101172.03;15611200;28;20504;-71
2023/08/13 18:16:28;;;;;;;6.45;2.30;;;;;;;25.51;49.33;101190.16;15665537;28;20044;-71
2023/08/13 18:24:05;;;;;;;7.15;2.53;;;;;;;25.18;48.45;101190.13;15682017;28;20537;-71
2023/08/13 18:31:38;;;;;;;6.32;2.45;;;;;;;25.35;50.40;101190.41;15681699;28;20041;-71
2023/08/13 18:39:12;;;;;;;7.13;2.10;;;;;;;24.64;48.26;101197.69;15681626;28;20081;-73
2023/08/13 18:46:45;;;;;;;4.75;2.20;;;;;;;24.46;49.50;101208.63;15681533;28;20048;-70
2023/08/13 18:54:20;;;;;;;5.40;2.40;;;;;;;24.43;48.62;101212.75;15680667;28;20111;-70
2023/08/13 19:01:53;;;;;;;4.97;2.40;;;;;;;24.49;48.01;101210.78;15679928;28;20067;-70
2023/08/13 19:09:28;;;;;;;6.75;2.35;;;;;;;24.57;47.20;101212.88;15678776;28;20037;-70
2023/08/13 19:17:01;;;;;;;7.28;2.47;;;;;;;24.53;46.44;101231.03;15626016;28;20068;-70
2023/08/13 19:24:35;;;;;;;5.60;2.10;;;;;;;24.39;46.46;101220.78;15598362;28;20315;-70
2023/08/13 19:32:08;;;;;;;5.82;2.97;;;;;;;24.55;46.27;101224.16;15614772;28;20049;-69
2023/08/13 19:39:42;;;;;;;8.05;2.75;;;;;;;24.61;45.34;101220.22;15598006;28;20042;-69
2023/08/13 19:47:15;;;;;;;4.80;2.70;;;;;;;24.39;46.20;101214.47;15616245;28;20049;-69
2023/08/13 19:54:49;;;;;;;4.03;2.40;;;;;;;24.51;45.72;101217.59;15597777;28;20095;-70
2023/08/13 20:02:22;;;;;;;4.97;2.53;;;;;;;24.46;46.02;101217.66;15614836;28;20447;-69
2023/08/13 20:09:57;;;;;;;6.95;2.75;;;;;;;24.07;46.99;101213.13;15613580;28;20096;-70
2023/08/13 20:17:30;;;;;;;6.47;3.17;;;;;;;23.85;47.90;101212.75;15669087;28;20069;-71
2023/08/13 20:25:05;;;;;;;7.13;2.88;;;;;;;23.70;48.01;101200.00;15674974;28;20049;-70
2023/08/13 20:32:38;;;;;;;7.07;3.13;;;;;;;23.95;47.99;101206.38;15672918;28;20037;-70
2023/08/13 20:40:13;;;;;;;5.40;2.67;;;;;;;23.58;48.51;101205.00;15675551;28;20143;-70
2023/08/13 20:47:46;;;;;;;7.03;3.08;;;;;;;23.47;48.49;101198.78;15675071;28;20087;-70
2023/08/13 20:55:21;;;;;;;6.28;3.20;;;;;;;23.20;48.96;101195.69;15639735;22;20049;-61
2023/08/13 21:02:54;;;;;;;5.22;2.90;;;;;;;23.25;49.80;101201.13;15531083;28;20108;-61
2023/08/13 21:10:28;;;;;;;8.80;3.47;;;;;;;22.69;51.54;101204.94;15549349;28;20052;-59
2023/08/13 21:18:01;;;;;;;4.70;3.15;;;;;;;22.48;51.80;101206.16;15591597;28;20045;-61
2023/08/13 21:25:39;;;;;;;7.72;3.60;;;;;;;22.49;51.98;101202.31;15609609;28;20071;-59
2023/08/13 21:33:12;;;;;;;5.95;3.20;;;;;;;22.62;51.33;101201.72;15592886;28;20501;-59
2023/08/13 21:40:47;;;;;;;9.05;3.55;;;;;;;22.76;51.37;101210.97;15591648;28;20064;-61
2023/08/13 21:48:20;;;;;;;6.55;3.45;;;;;;;22.97;50.82;101211.69;15611598;28;20037;-61
2023/08/13 21:55:55;;;;;;;7.53;3.58;;;;;;;23.15;51.67;101202.84;15620774;28;20053;-61
2023/08/13 22:03:28;;;;;;;10.57;3.53;;;;;;;22.97;53.41;101206.22;15602096;28;20065;-61
2023/08/13 22:11:03;;;;;;;6.88;3.50;;;;;;;22.78;54.57;101206.00;15602378;28;20674;-60
2023/08/13 22:18:36;;;;;;;7.55;3.50;;;;;;;22.58;55.65;101211.56;15619547;28;20056;-60
2023/08/13 22:26:10;;;;;;;8.93;3.60;;;;;;;22.49;55.54;101216.78;15619470;28;20406;-59
2023/08/13 22:33:43;;;;;;;7.18;3.58;;;;;;;22.40;56.03;101218.47;15618905;28;20045;-60
2023/08/13 22:41:17;;;;;;;6.57;4.03;;;;;;;22.24;56.28;101217.66;15618329;28;20405;-60
2023/08/13 22:48:50;;;;;;;8.70;4.50;;;;;;;22.07;56.75;101228.88;15599788;28;20041;-57
2023/08/13 22:56:25;;;;;;;7.57;3.65;;;;;;;21.50;58.69;101231.91;15617606;28;20481;-59
2023/08/13 23:03:58;;;;;;;7.13;4.13;;;;;;;21.36;59.40;101237.06;15617501;28;20432;-61
2023/08/13 23:11:33;;;;;;;8.25;4.43;;;;;;;21.18;59.82;101243.81;15590896;28;20442;-60
2023/08/13 23:19:06;;;;;;;9.23;4.50;;;;;;;21.19;59.89;101229.06;15555057;28;20064;-59
2023/08/13 23:26:40;;;;;;;7.65;4.07;;;;;;;21.18;59.68;101224.69;15536690;28;20042;-59
2023/08/13 23:34:15;;;;;;;8.15;4.20;;;;;;;21.18;59.40;101200.13;15535577;28;20081;-59
2023/08/13 23:41:50;;;;;;;15.25;4.40;;;;;;;20.99;60.53;101212.63;15535693;28;20101;-58
2023/08/13 23:49:24;;;;;;;5.82;4.78;;;;;;;21.25;59.43;101214.31;15552420;28;20086;-53
2023/08/13 23:56:58;;;;;;;7.40;4.22;;;;;;;20.58;61.02;101216.00;15534517;28;20052;-59
